createdAt,value
2018-03-31T00:01:33.613Z,7.50
2018-03-31T00:04:00.868Z,8.30
2018-03-31T00:06:28.215Z,8.53
2018-03-31T00:08:55.576Z,9.43
2018-03-31T00:11:22.853Z,8.23
2018-03-31T00:13:51.002Z,7.43
2018-03-31T00:16:18.247Z,8.97
2018-03-31T00:18:45.605Z,8.30
2018-03-31T00:21:12.958Z,9.17
2018-03-31T00:23:40.317Z,9.30
2018-03-31T00:26:07.681Z,7.33
2018-03-31T00:28:35.026Z,8.87
2018-03-31T00:31:02.377Z,6.30
2018-03-31T00:33:29.732Z,8.23
2018-03-31T00:35:57.098Z,9.03
2018-03-31T00:38:24.440Z,8.13
2018-03-31T00:40:51.793Z,9.23
2018-03-31T00:43:19.154Z,8.90
2018-03-31T00:45:46.404Z,6.73
2018-03-31T00:48:13.765Z,6.50
2018-03-31T00:50:41.119Z,5.83
2018-03-31T00:53:08.473Z,8.27
2018-03-31T00:55:35.823Z,8.87
2018-03-31T00:58:03.178Z,7.70
2018-03-31T01:00:30.530Z,7.70
2018-03-31T01:02:57.888Z,7.13
2018-03-31T01:05:25.241Z,9.73
2018-03-31T01:07:52.601Z,8.53
2018-03-31T01:10:19.948Z,9.90
2018-03-31T01:12:47.311Z,7.10
2018-03-31T01:15:14.660Z,10.10
2018-03-31T01:17:42.011Z,8.40
2018-03-31T01:20:09.265Z,8.20
2018-03-31T01:22:36.626Z,6.60
2018-03-31T01:25:03.978Z,8.87
2018-03-31T01:27:31.291Z,7.97
2018-03-31T01:29:58.536Z,8.80
2018-03-31T01:32:25.835Z,7.73
2018-03-31T01:34:53.190Z,8.97
2018-03-31T01:37:20.545Z,8.47
2018-03-31T01:39:47.906Z,8.90
2018-03-31T01:42:15.257Z,8.13
2018-03-31T01:44:42.615Z,8.63
2018-03-31T01:47:09.990Z,8.77
2018-03-31T01:49:37.325Z,7.93
2018-03-31T01:52:04.681Z,8.60
2018-03-31T01:54:32.024Z,9.60
2018-03-31T01:56:59.382Z,9.23
2018-03-31T01:59:26.738Z,9.40
2018-03-31T02:01:53.990Z,5.07
2018-03-31T02:06:54.741Z,9.00
2018-03-31T02:09:22.098Z,6.37
2018-03-31T02:11:49.450Z,8.13
2018-03-31T02:14:16.704Z,9.30
2018-03-31T02:16:44.055Z,7.50
2018-03-31T02:19:11.304Z,8.77
2018-03-31T02:21:38.547Z,8.80
2018-03-31T02:24:05.922Z,8.17
2018-03-31T02:26:33.273Z,8.23
2018-03-31T02:29:00.635Z,8.90
2018-03-31T02:31:27.760Z,8.90
2018-03-31T02:33:54.884Z,7.87
2018-03-31T02:36:22.064Z,9.47
2018-03-31T02:38:49.167Z,9.33
2018-03-31T02:41:17.034Z,7.70
2018-03-31T02:43:44.938Z,8.37
2018-03-31T02:46:12.051Z,9.00
2018-03-31T02:48:39.926Z,8.87
2018-03-31T02:51:07.058Z,6.87
2018-03-31T02:53:34.920Z,9.30
2018-03-31T02:56:02.828Z,8.80
2018-03-31T02:58:29.921Z,9.80
2018-03-31T03:00:57.786Z,10.00
2018-03-31T03:03:24.915Z,8.30
2018-03-31T03:05:52.017Z,8.87
2018-03-31T03:08:19.916Z,8.40
2018-03-31T03:10:47.004Z,7.30
2018-03-31T03:13:14.094Z,6.53
2018-03-31T03:15:41.223Z,6.20
2018-03-31T03:18:09.090Z,8.97
2018-03-31T03:20:36.989Z,8.30
2018-03-31T03:23:04.096Z,7.87
2018-03-31T03:25:31.196Z,7.67
2018-03-31T03:27:58.321Z,8.80
2018-03-31T03:30:25.416Z,8.40
2018-03-31T03:32:52.553Z,8.20
2018-03-31T03:35:19.655Z,8.73
2018-03-31T03:37:47.512Z,8.27
2018-03-31T03:40:15.395Z,8.40
2018-03-31T03:42:43.257Z,7.73
2018-03-31T03:45:11.156Z,8.77
2018-03-31T03:47:38.256Z,9.27
2018-03-31T03:50:05.393Z,7.40
2018-03-31T03:52:33.252Z,8.40
2018-03-31T03:55:00.344Z,7.43
2018-03-31T03:57:27.468Z,7.77
2018-03-31T03:59:54.577Z,7.60
2018-03-31T04:02:21.716Z,7.67
2018-03-31T04:04:48.808Z,7.10
2018-03-31T04:07:17.412Z,9.07
2018-03-31T04:09:45.295Z,6.10
2018-03-31T04:12:12.395Z,9.07
2018-03-31T04:14:39.513Z,8.03
2018-03-31T04:17:06.613Z,7.27
2018-03-31T04:19:33.743Z,8.57
2018-03-31T04:22:00.838Z,7.83
2018-03-31T04:24:28.737Z,7.80
2018-03-31T04:26:55.842Z,7.97
2018-03-31T04:29:23.706Z,5.63
2018-03-31T04:31:51.597Z,7.00
2018-03-31T04:34:18.701Z,8.43
2018-03-31T04:36:47.340Z,7.10
2018-03-31T04:39:14.435Z,8.17
2018-03-31T04:41:41.531Z,8.47
2018-03-31T04:44:08.648Z,8.97
2018-03-31T04:46:35.740Z,7.07
2018-03-31T04:49:02.860Z,7.07
2018-03-31T04:51:30.717Z,8.90
2018-03-31T04:53:58.615Z,7.53
2018-03-31T04:56:25.724Z,8.80
2018-03-31T04:58:52.856Z,8.50
2018-03-31T05:01:19.948Z,8.13
2018-03-31T05:03:47.049Z,10.40
2018-03-31T05:06:14.180Z,8.87
2018-03-31T05:08:41.276Z,10.33
2018-03-31T05:11:09.164Z,10.80
2018-03-31T05:13:36.265Z,10.87
2018-03-31T05:16:03.398Z,10.27
2018-03-31T05:18:30.498Z,10.03
2018-03-31T05:20:58.367Z,9.50
2018-03-31T05:23:26.248Z,10.50
2018-03-31T05:25:53.353Z,10.37
2018-03-31T05:28:21.272Z,9.50
2018-03-31T05:30:48.375Z,10.03
2018-03-31T05:33:15.496Z,9.40
2018-03-31T05:35:42.608Z,10.70
2018-03-31T05:38:09.731Z,8.80
2018-03-31T05:40:36.829Z,10.00
2018-03-31T05:43:03.960Z,9.17
2018-03-31T05:45:31.056Z,10.20
2018-03-31T05:47:58.152Z,9.17
2018-03-31T05:50:25.277Z,9.67
2018-03-31T05:52:52.372Z,10.50
2018-03-31T05:55:19.500Z,9.90
2018-03-31T05:57:46.597Z,8.93
2018-03-31T06:00:13.720Z,8.30
2018-03-31T06:02:40.856Z,10.93
2018-03-31T06:05:07.948Z,10.37
2018-03-31T06:07:35.068Z,10.57
2018-03-31T06:10:02.180Z,9.97
2018-03-31T06:12:30.081Z,7.83
2018-03-31T06:14:57.171Z,11.40
2018-03-31T06:17:24.296Z,10.93
2018-03-31T06:19:51.384Z,10.47
2018-03-31T06:22:19.249Z,9.10
2018-03-31T06:24:47.195Z,10.10
2018-03-31T06:27:14.321Z,10.40
2018-03-31T06:29:41.443Z,10.17
2018-03-31T06:32:08.532Z,9.80
2018-03-31T06:34:35.656Z,10.50
2018-03-31T06:37:02.756Z,11.33
2018-03-31T06:39:29.884Z,10.23
2018-03-31T06:41:56.991Z,10.20
2018-03-31T06:44:24.136Z,11.07
2018-03-31T06:46:51.238Z,10.60
2018-03-31T06:49:18.336Z,9.50
2018-03-31T06:51:45.460Z,11.00
2018-03-31T06:54:12.556Z,10.03
2018-03-31T06:56:39.673Z,11.60
2018-03-31T06:59:07.540Z,11.50
2018-03-31T07:01:35.449Z,10.70
2018-03-31T07:04:02.542Z,9.07
2018-03-31T07:06:30.450Z,10.40
2018-03-31T07:08:57.829Z,10.47
2018-03-31T07:11:24.931Z,10.20
2018-03-31T07:13:52.838Z,10.10
2018-03-31T07:16:19.944Z,9.60
2018-03-31T07:18:47.842Z,10.40
2018-03-31T07:21:14.936Z,10.37
2018-03-31T07:23:42.046Z,9.93
2018-03-31T07:26:09.178Z,10.37
2018-03-31T07:28:36.283Z,10.87
2018-03-31T07:31:03.404Z,9.40
2018-03-31T07:33:30.505Z,10.50
2018-03-31T07:35:58.388Z,10.47
2018-03-31T07:38:25.484Z,11.17
2018-03-31T07:40:52.610Z,10.30
2018-03-31T07:43:19.716Z,11.87
2018-03-31T07:45:47.614Z,11.40
2018-03-31T07:48:14.719Z,9.93
2018-03-31T07:50:41.836Z,10.93
2018-03-31T07:53:08.938Z,11.83
2018-03-31T07:55:36.875Z,9.07
2018-03-31T07:58:03.976Z,11.10
2018-03-31T08:00:31.077Z,10.30
2018-03-31T08:02:58.200Z,10.13
2018-03-31T08:05:25.296Z,12.00
2018-03-31T08:07:53.196Z,11.60
2018-03-31T08:10:20.299Z,11.27
2018-03-31T08:12:48.159Z,10.90
2018-03-31T08:15:15.288Z,10.80
2018-03-31T08:17:42.389Z,11.53
2018-03-31T08:20:09.532Z,11.90
2018-03-31T08:22:37.400Z,12.27
2018-03-31T08:25:04.499Z,13.47
2018-03-31T08:27:31.633Z,13.23
2018-03-31T08:29:58.732Z,10.80
2018-03-31T08:32:26.629Z,13.57
2018-03-31T08:34:53.741Z,11.70
2018-03-31T08:37:20.850Z,12.57
2018-03-31T08:39:47.989Z,10.67
2018-03-31T08:42:15.085Z,12.67
2018-03-31T08:44:42.236Z,13.90
2018-03-31T08:47:09.394Z,10.90
2018-03-31T08:49:36.473Z,13.10
2018-03-31T08:52:03.602Z,10.77
2018-03-31T08:54:31.699Z,11.87
2018-03-31T08:56:58.835Z,11.63
2018-03-31T08:59:26.166Z,12.53
2018-03-31T09:01:54.402Z,11.40
2018-03-31T09:04:22.587Z,12.43
2018-03-31T09:06:49.846Z,11.27
2018-03-31T09:09:18.500Z,11.37
2018-03-31T09:11:45.624Z,12.20
2018-03-31T09:14:12.758Z,13.63
2018-03-31T09:16:40.651Z,11.10
2018-03-31T09:19:07.751Z,13.60
2018-03-31T09:21:34.888Z,13.63
2018-03-31T09:24:02.077Z,11.30
2018-03-31T09:26:29.979Z,11.60
2018-03-31T09:28:57.131Z,12.00
2018-03-31T09:31:24.311Z,12.40
2018-03-31T09:33:51.436Z,13.10
2018-03-31T09:36:18.540Z,13.67
2018-03-31T09:38:46.443Z,12.70
2018-03-31T09:41:13.541Z,13.10
2018-03-31T09:43:42.146Z,12.90
2018-03-31T09:46:10.041Z,15.03
2018-03-31T09:48:37.137Z,12.67
2018-03-31T09:51:04.268Z,13.30
2018-03-31T09:53:31.373Z,15.63
2018-03-31T09:55:58.460Z,15.00
2018-03-31T09:58:25.595Z,14.70
2018-03-31T10:00:58.353Z,14.60
2018-03-31T10:03:25.485Z,17.67
2018-03-31T10:05:53.352Z,14.37
2018-03-31T10:08:21.259Z,14.63
2018-03-31T10:10:48.410Z,14.90
2018-03-31T10:13:15.575Z,13.07
2018-03-31T10:15:42.819Z,14.13
2018-03-31T10:18:10.073Z,13.33
2018-03-31T10:20:37.358Z,14.43
2018-03-31T10:23:05.973Z,13.73
2018-03-31T10:25:35.950Z,14.80
2018-03-31T10:28:03.281Z,15.93
2018-03-31T10:30:30.381Z,15.03
2018-03-31T10:32:58.307Z,15.87
2018-03-31T10:38:03.262Z,13.93
2018-03-31T10:40:30.549Z,13.47
2018-03-31T10:42:58.570Z,13.80
2018-03-31T10:45:25.732Z,14.37
2018-03-31T10:47:52.996Z,13.60
2018-03-31T10:50:20.270Z,13.67
2018-03-31T10:52:48.397Z,14.10
2018-03-31T10:55:15.591Z,12.10
2018-03-31T10:57:45.469Z,13.23
2018-03-31T11:00:14.639Z,16.60
2018-03-31T11:02:43.722Z,14.30
2018-03-31T11:05:12.749Z,13.53
2018-03-31T11:07:40.769Z,13.17
2018-03-31T11:10:08.688Z,13.77
2018-03-31T11:12:35.985Z,13.80
2018-03-31T11:15:03.197Z,13.60
2018-03-31T11:17:30.444Z,14.50
2018-03-31T11:19:57.589Z,13.77
2018-03-31T11:22:24.790Z,13.47
2018-03-31T11:24:52.726Z,12.43
2018-03-31T11:27:19.994Z,13.37
2018-03-31T11:32:21.588Z,15.37
2018-03-31T11:34:49.504Z,14.00
2018-03-31T11:37:16.778Z,14.17
2018-03-31T11:39:44.044Z,14.67
2018-03-31T11:42:11.284Z,14.27
2018-03-31T11:44:38.531Z,12.97
2018-03-31T11:47:06.101Z,12.90
2018-03-31T11:49:34.164Z,14.23
2018-03-31T11:52:01.502Z,14.53
2018-03-31T11:54:28.761Z,14.77
2018-03-31T11:56:56.941Z,14.60
2018-03-31T11:59:24.197Z,13.60
2018-03-31T12:01:51.431Z,12.53
2018-03-31T12:04:18.825Z,13.80
2018-03-31T12:06:46.763Z,11.73
2018-03-31T12:09:14.010Z,12.70
2018-03-31T12:11:41.152Z,13.53
2018-03-31T12:14:08.431Z,12.80
2018-03-31T12:16:35.684Z,14.20
2018-03-31T12:19:02.914Z,13.93
2018-03-31T12:21:30.301Z,14.27
2018-03-31T12:23:57.545Z,14.10
2018-03-31T12:26:24.893Z,14.43
2018-03-31T12:28:52.244Z,13.43
2018-03-31T12:31:19.597Z,15.87
2018-03-31T12:33:46.965Z,15.43
2018-03-31T12:36:14.108Z,14.33
2018-03-31T12:38:41.345Z,15.47
2018-03-31T12:41:08.625Z,15.20
2018-03-31T12:43:35.865Z,14.77
2018-03-31T12:46:03.225Z,13.67
2018-03-31T12:48:30.488Z,13.77
2018-03-31T12:50:57.734Z,13.10
2018-03-31T12:53:24.880Z,13.90
2018-03-31T12:55:52.052Z,14.17
2018-03-31T12:58:20.117Z,13.20
2018-03-31T13:00:48.061Z,13.33
2018-03-31T13:03:15.320Z,16.47
2018-03-31T13:05:42.560Z,14.77
2018-03-31T13:08:09.746Z,14.63
2018-03-31T13:10:37.182Z,12.93
2018-03-31T13:13:04.535Z,16.00
2018-03-31T13:15:31.890Z,15.10
2018-03-31T13:17:59.246Z,17.00
2018-03-31T13:20:26.500Z,16.93
2018-03-31T13:22:53.607Z,19.03
2018-03-31T13:25:20.979Z,17.30
2018-03-31T13:27:48.165Z,15.47
2018-03-31T13:30:16.918Z,15.67
2018-03-31T13:32:44.093Z,15.20
2018-03-31T13:35:12.075Z,15.90
2018-03-31T13:37:39.304Z,14.13
2018-03-31T13:40:06.548Z,13.80
2018-03-31T13:42:33.724Z,14.60
2018-03-31T13:45:00.962Z,14.73
2018-03-31T13:47:28.209Z,15.77
2018-03-31T13:49:55.451Z,14.50
2018-03-31T13:52:22.748Z,14.53
2018-03-31T13:54:50.694Z,13.50
2018-03-31T13:57:17.937Z,14.63
2018-03-31T13:59:45.073Z,14.10
2018-03-31T14:02:12.446Z,12.30
2018-03-31T14:04:39.699Z,14.20
2018-03-31T14:07:06.857Z,12.77
2018-03-31T14:09:34.794Z,11.40
2018-03-31T14:12:02.050Z,11.33
2018-03-31T14:14:29.284Z,12.27
2018-03-31T14:16:56.458Z,12.30
2018-03-31T14:19:23.644Z,10.57
2018-03-31T14:21:50.973Z,13.30
2018-03-31T14:24:18.234Z,12.20
2018-03-31T14:26:45.423Z,11.50
2018-03-31T14:29:13.470Z,11.77
2018-03-31T14:31:40.670Z,10.50
2018-03-31T14:34:07.849Z,11.60
2018-03-31T14:36:34.960Z,9.97
2018-03-31T14:39:02.168Z,10.70
2018-03-31T14:41:29.288Z,11.63
2018-03-31T14:43:56.547Z,9.70
2018-03-31T14:46:23.911Z,10.37
2018-03-31T14:48:51.162Z,10.10
2018-03-31T14:51:18.497Z,10.93
2018-03-31T14:53:45.700Z,10.60
2018-03-31T14:56:13.746Z,8.60
2018-03-31T14:58:41.728Z,9.33
2018-03-31T15:01:09.060Z,8.93
2018-03-31T15:03:36.201Z,8.93
2018-03-31T15:06:03.396Z,7.53
2018-03-31T15:08:31.445Z,9.73
2018-03-31T15:10:58.684Z,7.27
2018-03-31T15:13:25.923Z,8.03
2018-03-31T15:15:53.092Z,9.37
2018-03-31T15:18:20.280Z,6.40
2018-03-31T15:20:48.179Z,6.77
2018-03-31T15:23:15.356Z,7.33
2018-03-31T15:25:42.592Z,5.10
2018-03-31T15:28:09.787Z,4.17
2018-03-31T15:30:37.913Z,5.87
2018-03-31T15:33:05.177Z,5.07
2018-03-31T15:35:32.295Z,6.40
2018-03-31T15:37:59.573Z,5.47
2018-03-31T15:40:26.729Z,4.20
2018-03-31T15:42:54.074Z,6.43
2018-03-31T15:45:21.265Z,5.17
2018-03-31T15:47:48.505Z,6.13
2018-03-31T15:50:17.189Z,4.93
2018-03-31T15:52:44.433Z,5.10
2018-03-31T15:55:11.768Z,5.53
2018-03-31T15:57:38.952Z,6.13
2018-03-31T16:00:06.290Z,5.90
2018-03-31T16:02:33.435Z,4.83
2018-03-31T16:05:00.675Z,6.80
2018-03-31T16:07:27.961Z,7.50
2018-03-31T16:09:55.190Z,7.20
2018-03-31T16:12:22.504Z,8.00
2018-03-31T16:14:49.684Z,7.30
2018-03-31T16:17:16.852Z,8.27
2018-03-31T16:19:43.984Z,7.00
2018-03-31T16:22:11.128Z,7.37
2018-03-31T16:24:38.319Z,10.90
2018-03-31T16:27:05.558Z,8.23
2018-03-31T16:29:32.909Z,7.60
2018-03-31T16:32:00.273Z,6.30
2018-03-31T16:34:27.625Z,5.67
2018-03-31T16:36:54.979Z,6.37
2018-03-31T16:39:24.546Z,7.13
2018-03-31T16:41:52.760Z,6.30
2018-03-31T16:44:20.109Z,5.07
2018-03-31T16:46:47.439Z,5.30
2018-03-31T16:49:14.827Z,5.30
2018-03-31T16:51:42.778Z,5.20
2018-03-31T16:54:10.060Z,6.60
2018-03-31T16:56:37.293Z,8.03
2018-03-31T16:59:04.646Z,7.70
2018-03-31T17:01:31.999Z,8.63
2018-03-31T17:03:59.597Z,8.47
2018-03-31T17:06:27.545Z,9.50
2018-03-31T17:08:54.879Z,11.17
2018-03-31T17:11:22.242Z,10.20
2018-03-31T17:13:49.478Z,9.40
2018-03-31T17:16:16.742Z,9.73
2018-03-31T17:18:44.102Z,10.90
2018-03-31T17:21:11.257Z,11.90
2018-03-31T17:23:40.032Z,12.13
2018-03-31T17:26:07.500Z,13.23
2018-03-31T17:28:34.851Z,11.90
2018-03-31T17:31:02.213Z,13.07
2018-03-31T17:33:31.007Z,16.93
2018-03-31T17:35:58.344Z,15.60
2018-03-31T17:38:25.703Z,13.67
2018-03-31T17:40:53.052Z,17.97
2018-03-31T17:43:20.413Z,16.13
2018-03-31T17:45:47.762Z,17.10
2018-03-31T17:48:15.122Z,14.90
2018-03-31T17:50:43.299Z,18.03
2018-03-31T17:53:10.649Z,17.23
2018-03-31T17:55:38.016Z,19.37
2018-03-31T17:58:05.360Z,19.73
2018-03-31T18:00:32.712Z,22.37
2018-03-31T18:03:00.073Z,21.13
2018-03-31T18:05:27.344Z,20.83
2018-03-31T18:07:54.635Z,18.30
2018-03-31T18:10:21.772Z,20.50
2018-03-31T18:12:48.903Z,19.40
2018-03-31T18:15:16.763Z,20.33
2018-03-31T18:17:44.664Z,25.00
2018-03-31T18:20:11.764Z,21.00
2018-03-31T18:22:38.861Z,25.27
2018-03-31T18:25:05.995Z,19.80
2018-03-31T18:27:33.864Z,25.30
2018-03-31T18:30:01.000Z,21.53
2018-03-31T18:32:29.163Z,28.30
2018-03-31T18:34:56.374Z,27.07
2018-03-31T18:37:23.762Z,30.83
2018-03-31T18:39:51.938Z,29.30
2018-03-31T18:42:19.984Z,25.80
2018-03-31T18:44:48.069Z,25.90
2018-03-31T18:47:15.424Z,33.23
2018-03-31T18:49:42.778Z,29.03
2018-03-31T18:52:10.079Z,31.43
2018-03-31T18:54:37.965Z,26.50
2018-03-31T18:57:05.085Z,31.50
2018-03-31T18:59:32.949Z,27.10
2018-03-31T19:02:01.038Z,25.97
2018-03-31T19:04:28.427Z,18.40
2018-03-31T19:06:57.387Z,21.23
2018-03-31T19:09:24.978Z,16.83
2018-03-31T19:11:52.333Z,16.77
2018-03-31T19:14:19.693Z,16.77
2018-03-31T19:16:52.674Z,17.13
2018-03-31T19:19:20.029Z,16.13
2018-03-31T19:21:47.487Z,13.40
2018-03-31T19:24:16.380Z,13.23
2018-03-31T19:26:43.731Z,19.53
2018-03-31T19:29:11.090Z,12.70
2018-03-31T19:31:39.395Z,14.03
2018-03-31T19:34:06.783Z,11.90
2018-03-31T19:36:34.175Z,14.47
2018-03-31T19:39:01.300Z,13.07
2018-03-31T19:41:28.428Z,14.40
2018-03-31T19:43:56.294Z,13.40
2018-03-31T19:46:24.152Z,14.70
2018-03-31T19:48:52.040Z,14.00
2018-03-31T19:51:19.942Z,14.90
2018-03-31T19:53:47.296Z,14.93
2018-03-31T19:56:14.371Z,13.60
2018-03-31T19:58:41.468Z,12.87
2018-03-31T20:01:08.589Z,12.70
2018-03-31T20:03:36.452Z,14.50
2018-03-31T20:06:04.348Z,11.00
2018-03-31T20:08:31.450Z,10.47
2018-03-31T20:10:58.545Z,10.43
2018-03-31T20:13:25.668Z,9.50
2018-03-31T20:15:53.529Z,10.13
2018-03-31T20:18:20.676Z,10.20
2018-03-31T20:20:47.785Z,10.93
2018-03-31T20:23:14.880Z,13.03
2018-03-31T20:25:42.000Z,14.70
2018-03-31T20:28:09.107Z,16.43
2018-03-31T20:30:36.245Z,21.50
2018-03-31T20:33:04.117Z,21.57
2018-03-31T20:35:31.984Z,27.93
2018-03-31T20:37:59.555Z,28.00
2018-03-31T20:40:26.847Z,27.47
2018-03-31T20:42:54.200Z,27.50
2018-03-31T20:45:21.560Z,23.60
2018-03-31T20:47:48.916Z,20.60
2018-03-31T20:50:16.265Z,24.43
2018-03-31T20:52:43.528Z,29.47
2018-03-31T20:55:10.830Z,20.20
2018-03-31T20:57:38.130Z,19.20
2018-03-31T21:00:05.386Z,20.83
2018-03-31T21:02:32.731Z,20.50
2018-03-31T21:04:59.838Z,17.67
2018-03-31T21:07:26.965Z,19.27
2018-03-31T21:09:54.897Z,16.23
2018-03-31T21:12:22.052Z,14.63
2018-03-31T21:14:49.149Z,14.83
2018-03-31T21:17:16.257Z,12.90
2018-03-31T21:19:44.893Z,12.23
2018-03-31T21:22:11.988Z,11.33
2018-03-31T21:24:39.121Z,12.13
2018-03-31T21:27:06.240Z,10.20
2018-03-31T21:29:33.470Z,12.00
2018-03-31T21:32:01.370Z,12.10
2018-03-31T21:34:28.470Z,12.80
2018-03-31T21:36:55.599Z,16.27
2018-03-31T21:39:22.703Z,16.30
2018-03-31T21:41:49.843Z,14.03
2018-03-31T21:44:17.850Z,15.67
2018-03-31T21:46:44.979Z,16.83
2018-03-31T21:49:12.114Z,15.10
2018-03-31T21:51:39.409Z,16.60
2018-03-31T21:54:06.551Z,16.13
2018-03-31T21:56:33.711Z,14.80
2018-03-31T21:59:00.805Z,12.20
2018-03-31T22:01:28.706Z,13.47
2018-03-31T22:03:55.869Z,14.60
2018-03-31T22:06:23.025Z,15.23
2018-03-31T22:08:50.128Z,13.70
2018-03-31T22:11:17.997Z,13.13
2018-03-31T22:16:51.054Z,16.20
2018-03-31T22:19:18.184Z,16.70
2018-03-31T22:21:46.438Z,16.70
2018-03-31T22:24:13.708Z,17.03
2018-03-31T22:26:40.807Z,17.10
2018-03-31T22:32:01.684Z,16.10
2018-03-31T22:34:29.564Z,17.00
2018-03-31T22:36:58.051Z,15.47
2018-03-31T22:39:26.191Z,17.73
2018-03-31T22:41:53.544Z,18.27
2018-03-31T22:44:20.646Z,18.10
2018-03-31T22:46:47.788Z,15.10
2018-03-31T22:49:14.908Z,17.10
2018-03-31T22:51:41.999Z,16.33
2018-03-31T22:54:09.120Z,15.27
2018-03-31T22:56:36.990Z,13.90
2018-03-31T22:59:04.884Z,11.67
2018-03-31T23:01:31.984Z,13.63
2018-03-31T23:03:59.083Z,11.97
2018-03-31T23:06:26.200Z,12.30
2018-03-31T23:08:54.069Z,14.07
2018-03-31T23:11:21.972Z,13.30
2018-03-31T23:13:49.064Z,15.53
2018-03-31T23:16:16.193Z,14.40
2018-03-31T23:18:43.370Z,16.57
2018-03-31T23:21:10.496Z,18.63
2018-03-31T23:23:37.625Z,19.90
2018-03-31T23:26:04.789Z,16.40
2018-03-31T23:28:31.927Z,14.33
2018-03-31T23:30:59.096Z,12.50
2018-03-31T23:33:26.188Z,11.60
2018-03-31T23:35:54.087Z,9.37
2018-03-31T23:38:21.188Z,10.43
2018-03-31T23:40:48.314Z,10.50
2018-03-31T23:43:15.413Z,10.73
2018-03-31T23:45:42.553Z,9.90
2018-03-31T23:48:10.420Z,9.60
2018-03-31T23:50:38.291Z,10.60
2018-03-31T23:53:06.181Z,9.57
2018-03-31T23:55:33.275Z,10.57
2018-03-31T23:58:00.405Z,10.40
